sensor_id;sensor_type;location;lat;lon;timestamp;P1;durP1;ratioP1;P2;durP2;ratioP2
71091;SDS011;58751;50.708;7.134;2022-07-04T00:01:10;2.10;;;1.93;;
71091;SDS011;58751;50.708;7.134;2022-07-04T00:03:35;2.70;;;1.83;;
71091;SDS011;58751;50.708;7.134;2022-07-04T00:06:00;2.73;;;1.77;;
71091;SDS011;58751;50.708;7.134;2022-07-04T00:08:26;3.63;;;1.97;;
71091;SDS011;58751;50.708;7.134;2022-07-04T00:10:51;1.70;;;1.53;;
71091;SDS011;58751;50.708;7.134;2022-07-04T00:13:16;2.27;;;2.07;;
71091;SDS011;58751;50.708;7.134;2022-07-04T00:15:41;2.93;;;1.57;;
71091;SDS011;58751;50.708;7.134;2022-07-04T00:18:08;1.60;;;1.47;;
71091;SDS011;58751;50.708;7.134;2022-07-04T00:20:33;2.40;;;1.40;;
71091;SDS011;58751;50.708;7.134;2022-07-04T00:22:58;1.40;;;1.30;;
71091;SDS011;58751;50.708;7.134;2022-07-04T00:25:24;1.63;;;1.53;;
71091;SDS011;58751;50.708;7.134;2022-07-04T00:27:49;3.33;;;1.50;;
71091;SDS011;58751;50.708;7.134;2022-07-04T00:30:14;4.93;;;1.77;;
71091;SDS011;58751;50.708;7.134;2022-07-04T00:32:39;1.40;;;1.30;;
71091;SDS011;58751;50.708;7.134;2022-07-04T00:35:06;1.83;;;1.73;;
71091;SDS011;58751;50.708;7.134;2022-07-04T00:37:32;2.60;;;1.77;;
71091;SDS011;58751;50.708;7.134;2022-07-04T00:39:57;3.33;;;2.00;;
71091;SDS011;58751;50.708;7.134;2022-07-04T00:42:22;2.20;;;1.33;;
71091;SDS011;58751;50.708;7.134;2022-07-04T00:44:47;1.73;;;1.50;;
71091;SDS011;58751;50.708;7.134;2022-07-04T00:47:13;2.20;;;1.77;;
71091;SDS011;58751;50.708;7.134;2022-07-04T00:49:38;2.10;;;1.50;;
71091;SDS011;58751;50.708;7.134;2022-07-04T00:52:05;2.77;;;1.63;;
71091;SDS011;58751;50.708;7.134;2022-07-04T00:54:31;1.50;;;1.40;;
71091;SDS011;58751;50.708;7.134;2022-07-04T00:56:56;1.83;;;1.70;;
71091;SDS011;58751;50.708;7.134;2022-07-04T00:59:22;3.10;;;1.90;;
71091;SDS011;58751;50.708;7.134;2022-07-04T01:01:47;2.10;;;1.63;;
71091;SDS011;58751;50.708;7.134;2022-07-04T01:04:13;3.10;;;1.73;;
71091;SDS011;58751;50.708;7.134;2022-07-04T01:06:38;3.20;;;1.93;;
71091;SDS011;58751;50.708;7.134;2022-07-04T01:09:05;2.17;;;1.97;;
71091;SDS011;58751;50.708;7.134;2022-07-04T01:11:30;2.40;;;1.60;;
71091;SDS011;58751;50.708;7.134;2022-07-04T01:13:56;2.53;;;1.53;;
71091;SDS011;58751;50.708;7.134;2022-07-04T01:16:21;1.53;;;1.43;;
71091;SDS011;58751;50.708;7.134;2022-07-04T01:18:46;1.80;;;1.70;;
71091;SDS011;58751;50.708;7.134;2022-07-04T01:21:13;2.67;;;1.63;;
71091;SDS011;58751;50.708;7.134;2022-07-04T01:23:38;2.60;;;2.00;;
71091;SDS011;58751;50.708;7.134;2022-07-04T01:26:04;2.43;;;1.70;;
71091;SDS011;58751;50.708;7.134;2022-07-04T01:28:29;2.60;;;1.60;;
71091;SDS011;58751;50.708;7.134;2022-07-04T01:30:54;3.40;;;1.87;;
71091;SDS011;58751;50.708;7.134;2022-07-04T01:33:19;2.20;;;1.93;;
71091;SDS011;58751;50.708;7.134;2022-07-04T01:35:45;1.87;;;1.77;;
71091;SDS011;58751;50.708;7.134;2022-07-04T01:38:11;2.53;;;2.00;;
71091;SDS011;58751;50.708;7.134;2022-07-04T01:40:37;1.70;;;1.30;;
71091;SDS011;58751;50.708;7.134;2022-07-04T01:43:02;2.40;;;1.57;;
71091;SDS011;58751;50.708;7.134;2022-07-04T01:45:27;4.73;;;1.97;;
71091;SDS011;58751;50.708;7.134;2022-07-04T01:47:53;2.33;;;2.10;;
71091;SDS011;58751;50.708;7.134;2022-07-04T01:50:18;2.40;;;2.17;;
71091;SDS011;58751;50.708;7.134;2022-07-04T01:52:43;4.47;;;2.30;;
71091;SDS011;58751;50.708;7.134;2022-07-04T01:55:10;5.23;;;2.53;;
71091;SDS011;58751;50.708;7.134;2022-07-04T01:57:36;4.67;;;2.40;;
71091;SDS011;58751;50.708;7.134;2022-07-04T02:00:01;2.30;;;1.90;;
71091;SDS011;58751;50.708;7.134;2022-07-04T02:02:26;5.90;;;2.00;;
71091;SDS011;58751;50.708;7.134;2022-07-04T02:04:51;2.33;;;2.10;;
71091;SDS011;58751;50.708;7.134;2022-07-04T02:07:17;4.60;;;2.27;;
71091;SDS011;58751;50.708;7.134;2022-07-04T02:09:42;1.70;;;1.60;;
71091;SDS011;58751;50.708;7.134;2022-07-04T02:12:09;3.43;;;2.13;;
71091;SDS011;58751;50.708;7.134;2022-07-04T02:14:34;1.63;;;1.52;;
71091;SDS011;58751;50.708;7.134;2022-07-04T02:16:59;2.83;;;2.00;;
71091;SDS011;58751;50.708;7.134;2022-07-04T02:19:25;3.87;;;1.90;;
71091;SDS011;58751;50.708;7.134;2022-07-04T02:21:50;3.73;;;1.83;;
71091;SDS011;58751;50.708;7.134;2022-07-04T02:24:15;2.33;;;1.80;;
71091;SDS011;58751;50.708;7.134;2022-07-04T02:26:40;2.87;;;2.47;;
71091;SDS011;58751;50.708;7.134;2022-07-04T02:29:07;4.03;;;2.50;;
71091;SDS011;58751;50.708;7.134;2022-07-04T02:31:32;8.32;;;2.45;;
71091;SDS011;58751;50.708;7.134;2022-07-04T02:33:57;2.10;;;1.90;;
71091;SDS011;58751;50.708;7.134;2022-07-04T02:36:22;3.67;;;2.17;;
71091;SDS011;58751;50.708;7.134;2022-07-04T02:38:48;4.07;;;2.40;;
71091;SDS011;58751;50.708;7.134;2022-07-04T02:41:13;3.77;;;3.00;;
71091;SDS011;58751;50.708;7.134;2022-07-04T02:43:38;4.23;;;2.23;;
71091;SDS011;58751;50.708;7.134;2022-07-04T02:46:05;4.67;;;2.03;;
71091;SDS011;58751;50.708;7.134;2022-07-04T02:48:30;4.30;;;1.95;;
71091;SDS011;58751;50.708;7.134;2022-07-04T02:50:55;3.23;;;1.97;;
71091;SDS011;58751;50.708;7.134;2022-07-04T02:53:20;2.47;;;2.27;;
71091;SDS011;58751;50.708;7.134;2022-07-04T02:55:46;2.50;;;2.30;;
71091;SDS011;58751;50.708;7.134;2022-07-04T02:58:11;2.67;;;2.40;;
71091;SDS011;58751;50.708;7.134;2022-07-04T03:00:36;2.60;;;2.40;;
71091;SDS011;58751;50.708;7.134;2022-07-04T03:03:03;3.50;;;2.40;;
71091;SDS011;58751;50.708;7.134;2022-07-04T03:05:28;2.58;;;2.25;;
71091;SDS011;58751;50.708;7.134;2022-07-04T03:07:53;3.90;;;2.30;;
71091;SDS011;58751;50.708;7.134;2022-07-04T03:10:18;2.70;;;2.37;;
71091;SDS011;58751;50.708;7.134;2022-07-04T03:12:44;1.90;;;1.80;;
71091;SDS011;58751;50.708;7.134;2022-07-04T03:15:09;5.17;;;2.37;;
71091;SDS011;58751;50.708;7.134;2022-07-04T03:17:34;4.50;;;2.40;;
71091;SDS011;58751;50.708;7.134;2022-07-04T03:20:01;2.30;;;2.20;;
71091;SDS011;58751;50.708;7.134;2022-07-04T03:22:26;3.33;;;2.72;;
71091;SDS011;58751;50.708;7.134;2022-07-04T03:24:52;2.67;;;2.47;;
71091;SDS011;58751;50.708;7.134;2022-07-04T03:27:17;2.60;;;2.40;;
71091;SDS011;58751;50.708;7.134;2022-07-04T03:29:42;2.90;;;2.70;;
71091;SDS011;58751;50.708;7.134;2022-07-04T03:32:07;2.80;;;2.40;;
71091;SDS011;58751;50.708;7.134;2022-07-04T03:34:33;3.60;;;2.90;;
71091;SDS011;58751;50.708;7.134;2022-07-04T03:36:59;9.17;;;4.00;;
71091;SDS011;58751;50.708;7.134;2022-07-04T03:39:25;5.43;;;3.10;;
71091;SDS011;58751;50.708;7.134;2022-07-04T03:41:50;3.30;;;2.77;;
71091;SDS011;58751;50.708;7.134;2022-07-04T03:44:15;3.63;;;3.07;;
71091;SDS011;58751;50.708;7.134;2022-07-04T03:46:40;5.20;;;3.07;;
71091;SDS011;58751;50.708;7.134;2022-07-04T03:49:06;2.87;;;2.63;;
71091;SDS011;58751;50.708;7.134;2022-07-04T03:51:31;7.53;;;3.77;;
71091;SDS011;58751;50.708;7.134;2022-07-04T03:53:58;3.40;;;3.00;;
71091;SDS011;58751;50.708;7.134;2022-07-04T03:56:23;4.78;;;3.47;;
71091;SDS011;58751;50.708;7.134;2022-07-04T03:58:48;2.80;;;2.57;;
71091;SDS011;58751;50.708;7.134;2022-07-04T04:01:14;5.60;;;2.80;;
71091;SDS011;58751;50.708;7.134;2022-07-04T04:03:39;4.67;;;2.70;;
71091;SDS011;58751;50.708;7.134;2022-07-04T04:06:04;8.13;;;3.87;;
71091;SDS011;58751;50.708;7.134;2022-07-04T04:08:30;3.30;;;2.87;;
71091;SDS011;58751;50.708;7.134;2022-07-04T04:10:56;5.50;;;3.00;;
71091;SDS011;58751;50.708;7.134;2022-07-04T04:13:22;3.85;;;2.70;;
71091;SDS011;58751;50.708;7.134;2022-07-04T04:15:47;4.37;;;2.53;;
71091;SDS011;58751;50.708;7.134;2022-07-04T04:18:12;6.43;;;3.10;;
71091;SDS011;58751;50.708;7.134;2022-07-04T04:20:37;3.10;;;2.43;;
71091;SDS011;58751;50.708;7.134;2022-07-04T04:23:02;2.83;;;2.53;;
71091;SDS011;58751;50.708;7.134;2022-07-04T04:25:28;9.03;;;3.53;;
71091;SDS011;58751;50.708;7.134;2022-07-04T04:27:54;2.70;;;2.50;;
71091;SDS011;58751;50.708;7.134;2022-07-04T04:30:20;2.80;;;2.43;;
71091;SDS011;58751;50.708;7.134;2022-07-04T04:32:45;4.47;;;2.80;;
71091;SDS011;58751;50.708;7.134;2022-07-04T04:35:10;3.27;;;2.97;;
71091;SDS011;58751;50.708;7.134;2022-07-04T04:37:35;3.13;;;2.47;;
71091;SDS011;58751;50.708;7.134;2022-07-04T04:40:01;3.67;;;2.77;;
71091;SDS011;58751;50.708;7.134;2022-07-04T04:42:26;4.20;;;2.20;;
71091;SDS011;58751;50.708;7.134;2022-07-04T04:44:53;5.57;;;2.70;;
71091;SDS011;58751;50.708;7.134;2022-07-04T04:47:18;3.20;;;2.87;;
71091;SDS011;58751;50.708;7.134;2022-07-04T04:49:43;3.83;;;2.20;;
71091;SDS011;58751;50.708;7.134;2022-07-04T04:52:08;2.40;;;2.20;;
71091;SDS011;58751;50.708;7.134;2022-07-04T04:54:34;3.73;;;1.90;;
71091;SDS011;58751;50.708;7.134;2022-07-04T04:56:59;3.40;;;2.70;;
71091;SDS011;58751;50.708;7.134;2022-07-04T04:59:24;2.90;;;2.00;;
71091;SDS011;58751;50.708;7.134;2022-07-04T05:01:51;3.50;;;2.30;;
71091;SDS011;58751;50.708;7.134;2022-07-04T05:04:16;1.93;;;1.73;;
71091;SDS011;58751;50.708;7.134;2022-07-04T05:06:41;2.40;;;2.20;;
71091;SDS011;58751;50.708;7.134;2022-07-04T05:09:07;4.20;;;2.97;;
71091;SDS011;58751;50.708;7.134;2022-07-04T05:11:32;4.37;;;2.20;;
71091;SDS011;58751;50.708;7.134;2022-07-04T05:13:57;2.87;;;1.87;;
71091;SDS011;58751;50.708;7.134;2022-07-04T05:16:22;1.90;;;1.70;;
71091;SDS011;58751;50.708;7.134;2022-07-04T05:18:49;1.83;;;1.70;;
71091;SDS011;58751;50.708;7.134;2022-07-04T05:21:14;2.33;;;2.00;;
71091;SDS011;58751;50.708;7.134;2022-07-04T05:23:39;2.87;;;2.03;;
71091;SDS011;58751;50.708;7.134;2022-07-04T05:26:05;5.03;;;2.40;;
71091;SDS011;58751;50.708;7.134;2022-07-04T05:28:30;2.47;;;1.80;;
71091;SDS011;58751;50.708;7.134;2022-07-04T05:30:55;5.13;;;1.93;;
71091;SDS011;58751;50.708;7.134;2022-07-04T05:33:20;3.40;;;2.17;;
71091;SDS011;58751;50.708;7.134;2022-07-04T05:35:47;2.20;;;2.00;;
71091;SDS011;58751;50.708;7.134;2022-07-04T05:38:12;4.40;;;1.60;;
71091;SDS011;58751;50.708;7.134;2022-07-04T05:40:37;2.37;;;1.80;;
71091;SDS011;58751;50.708;7.134;2022-07-04T05:43:03;2.17;;;1.90;;
71091;SDS011;58751;50.708;7.134;2022-07-04T05:45:28;2.20;;;1.70;;
71091;SDS011;58751;50.708;7.134;2022-07-04T05:47:53;2.33;;;1.90;;
71091;SDS011;58751;50.708;7.134;2022-07-04T05:50:18;2.53;;;2.10;;
71091;SDS011;58751;50.708;7.134;2022-07-04T05:52:45;2.33;;;1.73;;
71091;SDS011;58751;50.708;7.134;2022-07-04T05:55:10;2.17;;;1.83;;
71091;SDS011;58751;50.708;7.134;2022-07-04T05:57:35;3.03;;;1.80;;
71091;SDS011;58751;50.708;7.134;2022-07-04T06:00:01;3.20;;;2.00;;
71091;SDS011;58751;50.708;7.134;2022-07-04T06:02:26;2.53;;;2.27;;
71091;SDS011;58751;50.708;7.134;2022-07-04T06:04:51;4.17;;;1.83;;
71091;SDS011;58751;50.708;7.134;2022-07-04T06:07:16;2.13;;;1.33;;
71091;SDS011;58751;50.708;7.134;2022-07-04T06:09:43;3.00;;;1.70;;
71091;SDS011;58751;50.708;7.134;2022-07-04T06:12:09;2.50;;;2.03;;
71091;SDS011;58751;50.708;7.134;2022-07-04T06:14:34;2.90;;;1.50;;
71091;SDS011;58751;50.708;7.134;2022-07-04T06:16:59;1.83;;;1.20;;
71091;SDS011;58751;50.708;7.134;2022-07-04T06:19:24;3.03;;;1.93;;
71091;SDS011;58751;50.708;7.134;2022-07-04T06:21:50;2.30;;;1.53;;
71091;SDS011;58751;50.708;7.134;2022-07-04T06:24:15;2.67;;;1.50;;
71091;SDS011;58751;50.708;7.134;2022-07-04T06:26:41;2.73;;;1.60;;
71091;SDS011;58751;50.708;7.134;2022-07-04T06:29:07;2.73;;;1.40;;
71091;SDS011;58751;50.708;7.134;2022-07-04T06:31:32;2.97;;;1.57;;
71091;SDS011;58751;50.708;7.134;2022-07-04T06:33:57;1.90;;;1.50;;
71091;SDS011;58751;50.708;7.134;2022-07-04T06:36:22;3.10;;;1.90;;
71091;SDS011;58751;50.708;7.134;2022-07-04T06:38:48;2.20;;;1.20;;
71091;SDS011;58751;50.708;7.134;2022-07-04T06:41:13;3.97;;;1.40;;
71091;SDS011;58751;50.708;7.134;2022-07-04T06:43:40;1.90;;;1.30;;
71091;SDS011;58751;50.708;7.134;2022-07-04T06:46:05;2.23;;;1.27;;
71091;SDS011;58751;50.708;7.134;2022-07-04T06:48:31;2.90;;;1.13;;
71091;SDS011;58751;50.708;7.134;2022-07-04T06:50:56;2.87;;;1.03;;
71091;SDS011;58751;50.708;7.134;2022-07-04T06:53:21;1.23;;;1.10;;
71091;SDS011;58751;50.708;7.134;2022-07-04T06:55:46;3.07;;;1.43;;
71091;SDS011;58751;50.708;7.134;2022-07-04T06:58:11;0.90;;;0.90;;
71091;SDS011;58751;50.708;7.134;2022-07-04T07:00:38;2.70;;;1.37;;
71091;SDS011;58751;50.708;7.134;2022-07-04T07:03:03;1.73;;;1.00;;
71091;SDS011;58751;50.708;7.134;2022-07-04T07:05:29;2.50;;;1.30;;
71091;SDS011;58751;50.708;7.134;2022-07-04T07:07:54;1.50;;;1.10;;
71091;SDS011;58751;50.708;7.134;2022-07-04T07:10:20;1.50;;;1.00;;
71091;SDS011;58751;50.708;7.134;2022-07-04T07:12:45;1.57;;;0.90;;
71091;SDS011;58751;50.708;7.134;2022-07-04T07:15:11;1.70;;;0.70;;
71091;SDS011;58751;50.708;7.134;2022-07-04T07:17:37;1.53;;;1.00;;
71091;SDS011;58751;50.708;7.134;2022-07-04T07:20:03;3.60;;;1.07;;
71091;SDS011;58751;50.708;7.134;2022-07-04T07:22:28;1.83;;;1.07;;
71091;SDS011;58751;50.708;7.134;2022-07-04T07:24:54;0.70;;;0.70;;
71091;SDS011;58751;50.708;7.134;2022-07-04T07:27:19;1.60;;;1.13;;
71091;SDS011;58751;50.708;7.134;2022-07-04T07:29:44;1.07;;;0.90;;
71091;SDS011;58751;50.708;7.134;2022-07-04T07:32:09;0.83;;;0.73;;
71091;SDS011;58751;50.708;7.134;2022-07-04T07:34:36;1.07;;;0.90;;
71091;SDS011;58751;50.708;7.134;2022-07-04T07:37:01;3.70;;;1.30;;
71091;SDS011;58751;50.708;7.134;2022-07-04T07:39:27;1.97;;;0.80;;
71091;SDS011;58751;50.708;7.134;2022-07-04T07:41:52;1.10;;;0.97;;
71091;SDS011;58751;50.708;7.134;2022-07-04T07:44:17;0.70;;;0.70;;
71091;SDS011;58751;50.708;7.134;2022-07-04T07:46:42;0.80;;;0.70;;
71091;SDS011;58751;50.708;7.134;2022-07-04T07:49:08;1.70;;;0.73;;
71091;SDS011;58751;50.708;7.134;2022-07-04T07:51:34;1.87;;;0.47;;
71091;SDS011;58751;50.708;7.134;2022-07-04T07:54:00;0.70;;;0.60;;
71091;SDS011;58751;50.708;7.134;2022-07-04T07:56:25;2.30;;;0.80;;
71091;SDS011;58751;50.708;7.134;2022-07-04T07:58:50;1.20;;;0.50;;
71091;SDS011;58751;50.708;7.134;2022-07-04T08:01:16;1.00;;;0.70;;
71091;SDS011;58751;50.708;7.134;2022-07-04T08:03:41;1.10;;;0.60;;
71091;SDS011;58751;50.708;7.134;2022-07-04T08:06:06;0.50;;;0.50;;
71091;SDS011;58751;50.708;7.134;2022-07-04T08:08:33;2.00;;;1.00;;
71091;SDS011;58751;50.708;7.134;2022-07-04T08:10:58;1.87;;;0.80;;
71091;SDS011;58751;50.708;7.134;2022-07-04T08:13:24;0.90;;;0.70;;
71091;SDS011;58751;50.708;7.134;2022-07-04T08:15:49;4.63;;;0.90;;
71091;SDS011;58751;50.708;7.134;2022-07-04T08:18:14;1.03;;;0.70;;
71091;SDS011;58751;50.708;7.134;2022-07-04T08:20:39;2.13;;;0.83;;
71091;SDS011;58751;50.708;7.134;2022-07-04T08:23:05;1.23;;;0.70;;
71091;SDS011;58751;50.708;7.134;2022-07-04T08:25:31;3.23;;;0.90;;
71091;SDS011;58751;50.708;7.134;2022-07-04T08:27:56;1.23;;;0.70;;
71091;SDS011;58751;50.708;7.134;2022-07-04T08:30:22;0.60;;;0.47;;
71091;SDS011;58751;50.708;7.134;2022-07-04T08:32:47;1.73;;;0.90;;
71091;SDS011;58751;50.708;7.134;2022-07-04T08:35:12;1.20;;;0.60;;
71091;SDS011;58751;50.708;7.134;2022-07-04T08:37:37;0.70;;;0.67;;
71091;SDS011;58751;50.708;7.134;2022-07-04T08:40:03;2.17;;;0.70;;
71091;SDS011;58751;50.708;7.134;2022-07-04T08:42:30;0.90;;;0.70;;
71091;SDS011;58751;50.708;7.134;2022-07-04T08:45:00;1.50;;;0.97;;
71091;SDS011;58751;50.708;7.134;2022-07-04T08:47:26;1.43;;;0.90;;
71091;SDS011;58751;50.708;7.134;2022-07-04T08:49:54;0.67;;;0.67;;
71091;SDS011;58751;50.708;7.134;2022-07-04T08:52:23;0.83;;;0.70;;
71091;SDS011;58751;50.708;7.134;2022-07-04T08:54:50;1.27;;;0.60;;
71091;SDS011;58751;50.708;7.134;2022-07-04T08:57:15;1.57;;;0.63;;
71091;SDS011;58751;50.708;7.134;2022-07-04T08:59:42;1.53;;;0.87;;
71091;SDS011;58751;50.708;7.134;2022-07-04T09:02:08;0.70;;;0.53;;
71091;SDS011;58751;50.708;7.134;2022-07-04T09:04:33;2.00;;;0.87;;
71091;SDS011;58751;50.708;7.134;2022-07-04T09:06:59;1.03;;;0.70;;
71091;SDS011;58751;50.708;7.134;2022-07-04T09:09:25;1.60;;;0.63;;
71091;SDS011;58751;50.708;7.134;2022-07-04T09:11:50;1.20;;;0.60;;
71091;SDS011;58751;50.708;7.134;2022-07-04T09:14:15;1.90;;;0.70;;
71091;SDS011;58751;50.708;7.134;2022-07-04T09:16:42;1.27;;;0.87;;
71091;SDS011;58751;50.708;7.134;2022-07-04T09:19:08;1.37;;;0.80;;
71091;SDS011;58751;50.708;7.134;2022-07-04T09:21:43;2.17;;;0.50;;
71091;SDS011;58751;50.708;7.134;2022-07-04T09:24:08;2.23;;;1.03;;
71091;SDS011;58751;50.708;7.134;2022-07-04T09:26:34;0.93;;;0.70;;
71091;SDS011;58751;50.708;7.134;2022-07-04T09:29:04;0.80;;;0.80;;
71091;SDS011;58751;50.708;7.134;2022-07-04T09:31:30;1.17;;;0.60;;
71091;SDS011;58751;50.708;7.134;2022-07-04T09:33:57;2.53;;;0.70;;
71091;SDS011;58751;50.708;7.134;2022-07-04T09:36:23;1.80;;;1.47;;
71091;SDS011;58751;50.708;7.134;2022-07-04T09:39:03;1.40;;;0.90;;
71091;SDS011;58751;50.708;7.134;2022-07-04T09:41:29;1.10;;;0.67;;
71091;SDS011;58751;50.708;7.134;2022-07-04T09:44:01;0.60;;;0.60;;
71091;SDS011;58751;50.708;7.134;2022-07-04T09:46:26;1.77;;;0.90;;
71091;SDS011;58751;50.708;7.134;2022-07-04T09:48:51;1.47;;;0.80;;
71091;SDS011;58751;50.708;7.134;2022-07-04T09:51:18;0.97;;;0.70;;
71091;SDS011;58751;50.708;7.134;2022-07-04T09:53:59;0.60;;;0.60;;
71091;SDS011;58751;50.708;7.134;2022-07-04T09:56:39;2.67;;;0.83;;
71091;SDS011;58751;50.708;7.134;2022-07-04T09:59:05;1.30;;;0.90;;
71091;SDS011;58751;50.708;7.134;2022-07-04T10:01:30;2.93;;;0.73;;
71091;SDS011;58751;50.708;7.134;2022-07-04T10:03:56;1.03;;;0.70;;
71091;SDS011;58751;50.708;7.134;2022-07-04T10:06:22;3.30;;;0.80;;
71091;SDS011;58751;50.708;7.134;2022-07-04T10:08:49;1.43;;;0.70;;
71091;SDS011;58751;50.708;7.134;2022-07-04T10:11:14;2.13;;;1.27;;
71091;SDS011;58751;50.708;7.134;2022-07-04T10:13:40;2.10;;;0.73;;
71091;SDS011;58751;50.708;7.134;2022-07-04T10:16:05;1.63;;;0.83;;
71091;SDS011;58751;50.708;7.134;2022-07-04T10:18:30;2.30;;;0.93;;
71091;SDS011;58751;50.708;7.134;2022-07-04T10:20:56;1.70;;;0.67;;
71091;SDS011;58751;50.708;7.134;2022-07-04T10:23:23;1.57;;;0.80;;
71091;SDS011;58751;50.708;7.134;2022-07-04T10:25:48;0.93;;;0.70;;
71091;SDS011;58751;50.708;7.134;2022-07-04T10:28:14;0.97;;;0.60;;
71091;SDS011;58751;50.708;7.134;2022-07-04T10:30:40;0.60;;;0.50;;
71091;SDS011;58751;50.708;7.134;2022-07-04T10:33:07;2.00;;;0.60;;
71091;SDS011;58751;50.708;7.134;2022-07-04T10:35:46;2.00;;;0.80;;
71091;SDS011;58751;50.708;7.134;2022-07-04T10:38:11;1.70;;;0.70;;
71091;SDS011;58751;50.708;7.134;2022-07-04T10:40:45;1.37;;;0.80;;
71091;SDS011;58751;50.708;7.134;2022-07-04T10:45:55;1.40;;;0.60;;
71091;SDS011;58751;50.708;7.134;2022-07-04T10:48:20;1.53;;;0.87;;
71091;SDS011;58751;50.708;7.134;2022-07-04T10:50:55;3.20;;;0.80;;
71091;SDS011;58751;50.708;7.134;2022-07-04T10:53:23;1.07;;;0.80;;
71091;SDS011;58751;50.708;7.134;2022-07-04T10:55:49;0.60;;;0.60;;
71091;SDS011;58751;50.708;7.134;2022-07-04T10:58:20;2.13;;;0.70;;
71091;SDS011;58751;50.708;7.134;2022-07-04T11:01:11;1.23;;;0.90;;
71091;SDS011;58751;50.708;7.134;2022-07-04T11:03:43;1.30;;;0.83;;
71091;SDS011;58751;50.708;7.134;2022-07-04T11:06:23;0.93;;;0.80;;
71091;SDS011;58751;50.708;7.134;2022-07-04T11:09:14;1.30;;;0.70;;
71091;SDS011;58751;50.708;7.134;2022-07-04T11:11:48;2.40;;;0.90;;
71091;SDS011;58751;50.708;7.134;2022-07-04T11:14:33;0.70;;;0.60;;
71091;SDS011;58751;50.708;7.134;2022-07-04T11:16:59;2.57;;;0.83;;
71091;SDS011;58751;50.708;7.134;2022-07-04T11:19:25;1.43;;;0.93;;
71091;SDS011;58751;50.708;7.134;2022-07-04T11:21:50;0.80;;;0.60;;
71091;SDS011;58751;50.708;7.134;2022-07-04T11:24:15;1.07;;;0.70;;
71091;SDS011;58751;50.708;7.134;2022-07-04T11:26:41;0.63;;;0.60;;
71091;SDS011;58751;50.708;7.134;2022-07-04T11:29:08;1.23;;;0.60;;
71091;SDS011;58751;50.708;7.134;2022-07-04T11:31:37;0.70;;;0.70;;
71091;SDS011;58751;50.708;7.134;2022-07-04T11:34:03;1.87;;;0.70;;
71091;SDS011;58751;50.708;7.134;2022-07-04T11:36:28;1.33;;;0.70;;
71091;SDS011;58751;50.708;7.134;2022-07-04T11:38:54;0.73;;;0.50;;
71091;SDS011;58751;50.708;7.134;2022-07-04T11:41:20;0.73;;;0.73;;
71091;SDS011;58751;50.708;7.134;2022-07-04T11:43:46;2.17;;;0.60;;
71091;SDS011;58751;50.708;7.134;2022-07-04T11:46:13;2.00;;;0.73;;
71091;SDS011;58751;50.708;7.134;2022-07-04T11:48:38;2.50;;;0.80;;
71091;SDS011;58751;50.708;7.134;2022-07-04T11:51:03;1.50;;;0.80;;
71091;SDS011;58751;50.708;7.134;2022-07-04T11:53:28;1.00;;;0.67;;
71091;SDS011;58751;50.708;7.134;2022-07-04T11:55:54;0.77;;;0.60;;
71091;SDS011;58751;50.708;7.134;2022-07-04T11:58:19;1.00;;;0.73;;
71091;SDS011;58751;50.708;7.134;2022-07-04T12:00:45;1.17;;;0.70;;
71091;SDS011;58751;50.708;7.134;2022-07-04T12:03:12;2.33;;;0.60;;
71091;SDS011;58751;50.708;7.134;2022-07-04T12:05:37;1.30;;;0.80;;
71091;SDS011;58751;50.708;7.134;2022-07-04T12:08:02;0.73;;;0.73;;
71091;SDS011;58751;50.708;7.134;2022-07-04T12:10:27;1.80;;;0.80;;
71091;SDS011;58751;50.708;7.134;2022-07-04T12:12:53;0.60;;;0.60;;
71091;SDS011;58751;50.708;7.134;2022-07-04T12:15:19;2.20;;;1.13;;
71091;SDS011;58751;50.708;7.134;2022-07-04T12:17:44;1.20;;;0.70;;
71091;SDS011;58751;50.708;7.134;2022-07-04T12:20:12;2.50;;;0.80;;
71091;SDS011;58751;50.708;7.134;2022-07-04T12:22:38;0.63;;;0.57;;
71091;SDS011;58751;50.708;7.134;2022-07-04T12:25:04;0.80;;;0.73;;
71091;SDS011;58751;50.708;7.134;2022-07-04T12:27:30;1.20;;;1.00;;
71091;SDS011;58751;50.708;7.134;2022-07-04T12:29:56;1.00;;;0.70;;
71091;SDS011;58751;50.708;7.134;2022-07-04T12:32:22;1.13;;;0.60;;
71091;SDS011;58751;50.708;7.134;2022-07-04T12:34:47;1.23;;;0.70;;
71091;SDS011;58751;50.708;7.134;2022-07-04T12:37:14;1.57;;;0.63;;
71091;SDS011;58751;50.708;7.134;2022-07-04T12:39:40;0.83;;;0.70;;
71091;SDS011;58751;50.708;7.134;2022-07-04T12:42:06;0.83;;;0.67;;
71091;SDS011;58751;50.708;7.134;2022-07-04T12:44:32;1.10;;;0.63;;
71091;SDS011;58751;50.708;7.134;2022-07-04T12:46:57;1.10;;;0.67;;
71091;SDS011;58751;50.708;7.134;2022-07-04T12:49:23;1.53;;;0.80;;
71091;SDS011;58751;50.708;7.134;2022-07-04T12:51:48;2.40;;;1.00;;
71091;SDS011;58751;50.708;7.134;2022-07-04T12:54:15;0.80;;;0.53;;
71091;SDS011;58751;50.708;7.134;2022-07-04T12:56:40;2.33;;;0.80;;
71091;SDS011;58751;50.708;7.134;2022-07-04T12:59:06;1.13;;;1.03;;
71091;SDS011;58751;50.708;7.134;2022-07-04T13:01:32;3.03;;;0.80;;
71091;SDS011;58751;50.708;7.134;2022-07-04T13:03:57;3.03;;;1.40;;
71091;SDS011;58751;50.708;7.134;2022-07-04T13:06:23;1.90;;;1.10;;
71091;SDS011;58751;50.708;7.134;2022-07-04T13:08:48;1.90;;;0.73;;
71091;SDS011;58751;50.708;7.134;2022-07-04T13:11:15;2.20;;;0.80;;
71091;SDS011;58751;50.708;7.134;2022-07-04T13:13:40;3.27;;;1.03;;
71091;SDS011;58751;50.708;7.134;2022-07-04T13:16:05;3.73;;;3.23;;
71091;SDS011;58751;50.708;7.134;2022-07-04T13:18:30;2.00;;;1.10;;
71091;SDS011;58751;50.708;7.134;2022-07-04T13:20:56;3.77;;;1.17;;
71091;SDS011;58751;50.708;7.134;2022-07-04T13:23:21;4.70;;;1.00;;
71091;SDS011;58751;50.708;7.134;2022-07-04T13:25:46;1.43;;;0.80;;
71091;SDS011;58751;50.708;7.134;2022-07-04T13:28:13;4.60;;;1.10;;
71091;SDS011;58751;50.708;7.134;2022-07-04T13:30:39;2.27;;;0.83;;
71091;SDS011;58751;50.708;7.134;2022-07-04T13:33:04;1.77;;;0.90;;
71091;SDS011;58751;50.708;7.134;2022-07-04T13:35:29;1.57;;;1.03;;
71091;SDS011;58751;50.708;7.134;2022-07-04T13:37:55;2.27;;;1.10;;
71091;SDS011;58751;50.708;7.134;2022-07-04T13:40:20;2.03;;;0.90;;
71091;SDS011;58751;50.708;7.134;2022-07-04T13:42:45;2.40;;;1.10;;
71091;SDS011;58751;50.708;7.134;2022-07-04T13:45:12;1.37;;;0.80;;
71091;SDS011;58751;50.708;7.134;2022-07-04T13:47:37;2.10;;;0.90;;
71091;SDS011;58751;50.708;7.134;2022-07-04T13:50:02;2.20;;;0.67;;
71091;SDS011;58751;50.708;7.134;2022-07-04T13:52:28;1.53;;;1.20;;
71091;SDS011;58751;50.708;7.134;2022-07-04T13:54:53;3.03;;;1.20;;
71091;SDS011;58751;50.708;7.134;2022-07-04T13:57:18;3.43;;;1.17;;
71091;SDS011;58751;50.708;7.134;2022-07-04T13:59:44;1.40;;;0.93;;
71091;SDS011;58751;50.708;7.134;2022-07-04T14:02:10;3.40;;;1.27;;
71091;SDS011;58751;50.708;7.134;2022-07-04T14:04:36;0.87;;;0.77;;
71091;SDS011;58751;50.708;7.134;2022-07-04T14:07:03;1.97;;;1.10;;
71091;SDS011;58751;50.708;7.134;2022-07-04T14:09:28;2.00;;;0.90;;
71091;SDS011;58751;50.708;7.134;2022-07-04T14:11:53;2.33;;;0.90;;
71091;SDS011;58751;50.708;7.134;2022-07-04T14:14:18;2.20;;;0.83;;
71091;SDS011;58751;50.708;7.134;2022-07-04T14:16:44;1.30;;;1.03;;
71091;SDS011;58751;50.708;7.134;2022-07-04T14:19:10;1.83;;;0.90;;
71091;SDS011;58751;50.708;7.134;2022-07-04T14:21:35;1.57;;;1.10;;
71091;SDS011;58751;50.708;7.134;2022-07-04T14:24:01;3.80;;;0.90;;
71091;SDS011;58751;50.708;7.134;2022-07-04T14:26:26;3.20;;;1.20;;
71091;SDS011;58751;50.708;7.134;2022-07-04T14:28:51;3.33;;;0.87;;
71091;SDS011;58751;50.708;7.134;2022-07-04T14:31:16;2.87;;;1.10;;
71091;SDS011;58751;50.708;7.134;2022-07-04T14:33:42;1.30;;;1.10;;
71091;SDS011;58751;50.708;7.134;2022-07-04T14:36:08;2.10;;;0.80;;
71091;SDS011;58751;50.708;7.134;2022-07-04T14:38:34;3.37;;;1.00;;
71091;SDS011;58751;50.708;7.134;2022-07-04T14:40:59;1.93;;;0.93;;
71091;SDS011;58751;50.708;7.134;2022-07-04T14:43:24;2.63;;;1.10;;